sensor_id;sensor_type;location;lat;lon;timestamp;temperature;humidity
30381;DHT22;17169;50.966;11.038;2023-05-10T00:01:31;16.70;63.10
30381;DHT22;17169;50.966;11.038;2023-05-10T00:04:33;16.70;63.30
30381;DHT22;17169;50.966;11.038;2023-05-10T00:07:36;16.70;63.50
30381;DHT22;17169;50.966;11.038;2023-05-10T00:10:39;16.70;63.60
30381;DHT22;17169;50.966;11.038;2023-05-10T00:13:42;16.70;63.80
30381;DHT22;17169;50.966;11.038;2023-05-10T00:16:44;16.70;63.60
30381;DHT22;17169;50.966;11.038;2023-05-10T00:19:47;16.70;63.80
30381;DHT22;17169;50.966;11.038;2023-05-10T00:22:49;16.70;64.10
30381;DHT22;17169;50.966;11.038;2023-05-10T00:25:53;16.70;63.90
30381;DHT22;17169;50.966;11.038;2023-05-10T00:28:55;16.70;64.40
30381;DHT22;17169;50.966;11.038;2023-05-10T00:31:57;16.70;64.30
30381;DHT22;17169;50.966;11.038;2023-05-10T00:35:00;16.70;64.70
30381;DHT22;17169;50.966;11.038;2023-05-10T00:38:02;16.70;64.40
30381;DHT22;17169;50.966;11.038;2023-05-10T00:41:06;16.70;64.40
30381;DHT22;17169;50.966;11.038;2023-05-10T00:44:08;16.70;64.40
30381;DHT22;17169;50.966;11.038;2023-05-10T00:47:11;16.80;64.60
30381;DHT22;17169;50.966;11.038;2023-05-10T00:50:14;16.70;64.40
30381;DHT22;17169;50.966;11.038;2023-05-10T00:53:17;16.70;64.60
30381;DHT22;17169;50.966;11.038;2023-05-10T00:56:21;16.70;64.80
30381;DHT22;17169;50.966;11.038;2023-05-10T00:59:25;16.70;64.50
30381;DHT22;17169;50.966;11.038;2023-05-10T01:02:28;16.70;65.00
30381;DHT22;17169;50.966;11.038;2023-05-10T01:05:30;16.70;65.00
30381;DHT22;17169;50.966;11.038;2023-05-10T01:08:33;16.80;65.10
30381;DHT22;17169;50.966;11.038;2023-05-10T01:11:38;16.70;65.10
30381;DHT22;17169;50.966;11.038;2023-05-10T01:14:40;16.70;65.50
30381;DHT22;17169;50.966;11.038;2023-05-10T01:17:44;16.80;65.50
30381;DHT22;17169;50.966;11.038;2023-05-10T01:20:50;16.80;65.30
30381;DHT22;17169;50.966;11.038;2023-05-10T01:24:13;16.80;65.50
30381;DHT22;17169;50.966;11.038;2023-05-10T01:27:31;16.80;65.40
30381;DHT22;17169;50.966;11.038;2023-05-10T01:31:00;16.80;65.50
30381;DHT22;17169;50.966;11.038;2023-05-10T01:34:08;16.80;65.50
30381;DHT22;17169;50.966;11.038;2023-05-10T01:37:17;16.80;65.60
30381;DHT22;17169;50.966;11.038;2023-05-10T01:40:23;16.80;65.80
30381;DHT22;17169;50.966;11.038;2023-05-10T01:43:32;16.70;66.40
30381;DHT22;17169;50.966;11.038;2023-05-10T01:46:40;16.70;66.40
30381;DHT22;17169;50.966;11.038;2023-05-10T01:49:49;16.70;66.70
30381;DHT22;17169;50.966;11.038;2023-05-10T01:52:55;16.70;66.20
30381;DHT22;17169;50.966;11.038;2023-05-10T01:55:59;16.70;66.30
30381;DHT22;17169;50.966;11.038;2023-05-10T01:59:07;16.70;66.40
30381;DHT22;17169;50.966;11.038;2023-05-10T02:02:12;16.70;67.10
30381;DHT22;17169;50.966;11.038;2023-05-10T02:05:17;16.60;66.90
30381;DHT22;17169;50.966;11.038;2023-05-10T02:08:21;16.60;66.80
30381;DHT22;17169;50.966;11.038;2023-05-10T02:11:25;16.70;67.20
30381;DHT22;17169;50.966;11.038;2023-05-10T02:14:29;16.60;67.20
30381;DHT22;17169;50.966;11.038;2023-05-10T02:17:33;16.60;67.40
30381;DHT22;17169;50.966;11.038;2023-05-10T02:20:38;16.60;68.20
30381;DHT22;17169;50.966;11.038;2023-05-10T02:23:42;16.60;68.00
30381;DHT22;17169;50.966;11.038;2023-05-10T02:26:46;16.60;68.60
30381;DHT22;17169;50.966;11.038;2023-05-10T02:29:50;16.60;68.80
30381;DHT22;17169;50.966;11.038;2023-05-10T02:32:53;16.50;68.60
30381;DHT22;17169;50.966;11.038;2023-05-10T02:35:58;16.50;69.00
30381;DHT22;17169;50.966;11.038;2023-05-10T02:39:01;16.50;68.80
30381;DHT22;17169;50.966;11.038;2023-05-10T02:42:05;16.50;68.90
30381;DHT22;17169;50.966;11.038;2023-05-10T02:45:10;16.40;68.90
30381;DHT22;17169;50.966;11.038;2023-05-10T02:48:13;16.40;69.20
30381;DHT22;17169;50.966;11.038;2023-05-10T02:51:18;16.40;69.30
30381;DHT22;17169;50.966;11.038;2023-05-10T02:54:25;16.40;69.70
30381;DHT22;17169;50.966;11.038;2023-05-10T02:57:32;16.40;69.70
30381;DHT22;17169;50.966;11.038;2023-05-10T03:00:35;16.30;70.00
30381;DHT22;17169;50.966;11.038;2023-05-10T03:03:38;16.30;70.20
30381;DHT22;17169;50.966;11.038;2023-05-10T03:06:42;16.30;70.50
30381;DHT22;17169;50.966;11.038;2023-05-10T03:09:45;16.30;70.50
30381;DHT22;17169;50.966;11.038;2023-05-10T03:12:57;16.30;71.00
30381;DHT22;17169;50.966;11.038;2023-05-10T03:16:08;16.30;71.30
30381;DHT22;17169;50.966;11.038;2023-05-10T03:19:16;16.30;71.40
30381;DHT22;17169;50.966;11.038;2023-05-10T03:22:24;16.20;71.40
30381;DHT22;17169;50.966;11.038;2023-05-10T03:25:28;16.20;72.30
30381;DHT22;17169;50.966;11.038;2023-05-10T03:28:33;16.20;73.50
30381;DHT22;17169;50.966;11.038;2023-05-10T03:31:36;16.20;73.10
30381;DHT22;17169;50.966;11.038;2023-05-10T03:34:41;16.10;73.30
30381;DHT22;17169;50.966;11.038;2023-05-10T03:37:45;16.10;73.90
30381;DHT22;17169;50.966;11.038;2023-05-10T03:40:48;16.10;75.00
30381;DHT22;17169;50.966;11.038;2023-05-10T03:43:51;16.10;76.60
30381;DHT22;17169;50.966;11.038;2023-05-10T03:46:53;16.10;77.10
30381;DHT22;17169;50.966;11.038;2023-05-10T03:49:56;16.00;78.10
30381;DHT22;17169;50.966;11.038;2023-05-10T03:53:00;16.10;79.20
30381;DHT22;17169;50.966;11.038;2023-05-10T03:56:03;16.00;80.70
30381;DHT22;17169;50.966;11.038;2023-05-10T03:59:06;16.00;81.40
30381;DHT22;17169;50.966;11.038;2023-05-10T04:02:09;16.00;81.00
30381;DHT22;17169;50.966;11.038;2023-05-10T04:05:12;15.90;82.60
30381;DHT22;17169;50.966;11.038;2023-05-10T04:08:16;15.80;84.30
30381;DHT22;17169;50.966;11.038;2023-05-10T04:11:18;15.80;85.80
30381;DHT22;17169;50.966;11.038;2023-05-10T04:14:22;15.80;87.10
30381;DHT22;17169;50.966;11.038;2023-05-10T04:17:25;15.70;88.10
30381;DHT22;17169;50.966;11.038;2023-05-10T04:20:27;15.70;89.30
30381;DHT22;17169;50.966;11.038;2023-05-10T04:23:31;15.60;90.10
30381;DHT22;17169;50.966;11.038;2023-05-10T04:26:34;15.60;91.00
30381;DHT22;17169;50.966;11.038;2023-05-10T04:29:36;15.50;91.40
30381;DHT22;17169;50.966;11.038;2023-05-10T04:32:39;15.60;92.30
30381;DHT22;17169;50.966;11.038;2023-05-10T04:35:41;15.60;93.00
30381;DHT22;17169;50.966;11.038;2023-05-10T04:38:47;15.50;93.90
30381;DHT22;17169;50.966;11.038;2023-05-10T04:41:49;15.50;94.00
30381;DHT22;17169;50.966;11.038;2023-05-10T04:44:51;15.50;95.00
30381;DHT22;17169;50.966;11.038;2023-05-10T04:47:54;15.50;95.90
30381;DHT22;17169;50.966;11.038;2023-05-10T04:50:56;15.50;97.00
30381;DHT22;17169;50.966;11.038;2023-05-10T04:54:00;15.40;97.60
30381;DHT22;17169;50.966;11.038;2023-05-10T04:57:03;15.50;98.70
30381;DHT22;17169;50.966;11.038;2023-05-10T05:00:06;15.50;99.00
30381;DHT22;17169;50.966;11.038;2023-05-10T05:03:09;15.40;99.50
30381;DHT22;17169;50.966;11.038;2023-05-10T05:06:11;15.40;99.90
30381;DHT22;17169;50.966;11.038;2023-05-10T05:09:15;15.40;99.90
30381;DHT22;17169;50.966;11.038;2023-05-10T05:12:17;15.40;99.90
30381;DHT22;17169;50.966;11.038;2023-05-10T05:15:20;15.50;99.90
30381;DHT22;17169;50.966;11.038;2023-05-10T05:18:22;15.50;99.90
30381;DHT22;17169;50.966;11.038;2023-05-10T05:21:25;15.50;99.90
30381;DHT22;17169;50.966;11.038;2023-05-10T05:24:32;15.50;99.90
30381;DHT22;17169;50.966;11.038;2023-05-10T05:27:36;15.60;99.90
30381;DHT22;17169;50.966;11.038;2023-05-10T05:30:39;15.60;99.90
30381;DHT22;17169;50.966;11.038;2023-05-10T05:33:41;15.60;99.90
30381;DHT22;17169;50.966;11.038;2023-05-10T05:36:43;15.60;99.90
30381;DHT22;17169;50.966;11.038;2023-05-10T05:39:47;15.60;99.90
30381;DHT22;17169;50.966;11.038;2023-05-10T05:42:50;15.70;99.90
30381;DHT22;17169;50.966;11.038;2023-05-10T05:45:53;15.60;99.90
30381;DHT22;17169;50.966;11.038;2023-05-10T05:48:55;15.60;99.90
30381;DHT22;17169;50.966;11.038;2023-05-10T05:51:59;15.60;99.90
30381;DHT22;17169;50.966;11.038;2023-05-10T05:55:04;15.50;99.90
30381;DHT22;17169;50.966;11.038;2023-05-10T05:58:06;15.60;99.90
30381;DHT22;17169;50.966;11.038;2023-05-10T06:01:09;15.60;99.90
30381;DHT22;17169;50.966;11.038;2023-05-10T06:04:11;15.60;99.90
30381;DHT22;17169;50.966;11.038;2023-05-10T06:07:13;15.60;99.90
30381;DHT22;17169;50.966;11.038;2023-05-10T06:10:17;15.50;99.90
30381;DHT22;17169;50.966;11.038;2023-05-10T06:13:20;15.50;99.90
30381;DHT22;17169;50.966;11.038;2023-05-10T06:16:22;15.60;99.90
30381;DHT22;17169;50.966;11.038;2023-05-10T06:19:25;15.60;99.90
30381;DHT22;17169;50.966;11.038;2023-05-10T06:22:27;15.70;99.90
30381;DHT22;17169;50.966;11.038;2023-05-10T06:25:31;15.70;99.90
30381;DHT22;17169;50.966;11.038;2023-05-10T06:28:33;15.80;99.90
30381;DHT22;17169;50.966;11.038;2023-05-10T06:31:36;15.80;99.90
30381;DHT22;17169;50.966;11.038;2023-05-10T06:34:38;16.00;99.90
30381;DHT22;17169;50.966;11.038;2023-05-10T06:37:41;16.00;99.90
30381;DHT22;17169;50.966;11.038;2023-05-10T06:40:44;16.00;99.90
30381;DHT22;17169;50.966;11.038;2023-05-10T06:43:47;16.10;99.90
30381;DHT22;17169;50.966;11.038;2023-05-10T06:46:49;16.20;99.90
30381;DHT22;17169;50.966;11.038;2023-05-10T06:49:53;16.30;99.90
30381;DHT22;17169;50.966;11.038;2023-05-10T06:52:56;16.40;99.90
30381;DHT22;17169;50.966;11.038;2023-05-10T06:56:00;16.30;99.90
30381;DHT22;17169;50.966;11.038;2023-05-10T06:59:04;16.40;99.90
30381;DHT22;17169;50.966;11.038;2023-05-10T07:02:06;16.50;99.90
30381;DHT22;17169;50.966;11.038;2023-05-10T07:05:09;16.50;99.90
30381;DHT22;17169;50.966;11.038;2023-05-10T07:08:11;16.60;99.90
30381;DHT22;17169;50.966;11.038;2023-05-10T07:11:15;16.50;99.90
30381;DHT22;17169;50.966;11.038;2023-05-10T07:14:18;16.60;99.90
30381;DHT22;17169;50.966;11.038;2023-05-10T07:17:20;16.70;99.90
30381;DHT22;17169;50.966;11.038;2023-05-10T07:20:23;16.80;99.90
30381;DHT22;17169;50.966;11.038;2023-05-10T07:23:25;16.90;99.90
30381;DHT22;17169;50.966;11.038;2023-05-10T07:26:29;17.00;99.90
30381;DHT22;17169;50.966;11.038;2023-05-10T07:29:31;17.00;99.90
30381;DHT22;17169;50.966;11.038;2023-05-10T07:32:34;17.10;99.90
30381;DHT22;17169;50.966;11.038;2023-05-10T07:35:36;17.10;99.90
30381;DHT22;17169;50.966;11.038;2023-05-10T07:38:38;17.10;99.90
30381;DHT22;17169;50.966;11.038;2023-05-10T07:41:42;17.20;99.90
30381;DHT22;17169;50.966;11.038;2023-05-10T07:44:45;17.30;99.90
30381;DHT22;17169;50.966;11.038;2023-05-10T07:47:48;17.40;99.90
30381;DHT22;17169;50.966;11.038;2023-05-10T07:50:50;17.30;99.90
30381;DHT22;17169;50.966;11.038;2023-05-10T07:53:53;17.40;99.90
30381;DHT22;17169;50.966;11.038;2023-05-10T07:56:56;17.50;99.90
30381;DHT22;17169;50.966;11.038;2023-05-10T08:00:00;17.40;99.90
30381;DHT22;17169;50.966;11.038;2023-05-10T08:03:03;17.50;99.90
30381;DHT22;17169;50.966;11.038;2023-05-10T08:06:05;17.50;99.90
30381;DHT22;17169;50.966;11.038;2023-05-10T08:09:08;17.50;99.90
30381;DHT22;17169;50.966;11.038;2023-05-10T08:12:13;17.50;99.90
30381;DHT22;17169;50.966;11.038;2023-05-10T08:15:15;17.30;99.90
30381;DHT22;17169;50.966;11.038;2023-05-10T08:18:18;17.30;99.90
30381;DHT22;17169;50.966;11.038;2023-05-10T08:21:20;17.10;99.90
30381;DHT22;17169;50.966;11.038;2023-05-10T08:24:23;17.00;99.90
30381;DHT22;17169;50.966;11.038;2023-05-10T08:27:26;16.90;99.90
30381;DHT22;17169;50.966;11.038;2023-05-10T08:30:29;16.90;99.90
30381;DHT22;17169;50.966;11.038;2023-05-10T08:33:31;17.00;99.90
30381;DHT22;17169;50.966;11.038;2023-05-10T08:36:34;17.10;99.90
30381;DHT22;17169;50.966;11.038;2023-05-10T08:39:37;17.10;99.90
30381;DHT22;17169;50.966;11.038;2023-05-10T08:42:45;17.10;99.90
30381;DHT22;17169;50.966;11.038;2023-05-10T08:45:50;17.30;99.90
30381;DHT22;17169;50.966;11.038;2023-05-10T08:48:55;17.40;99.90
30381;DHT22;17169;50.966;11.038;2023-05-10T08:51:57;17.50;99.90
30381;DHT22;17169;50.966;11.038;2023-05-10T08:55:01;17.60;99.90
30381;DHT22;17169;50.966;11.038;2023-05-10T08:58:06;17.60;99.90
30381;DHT22;17169;50.966;11.038;2023-05-10T09:01:09;17.70;99.90
30381;DHT22;17169;50.966;11.038;2023-05-10T09:04:12;17.70;99.90
30381;DHT22;17169;50.966;11.038;2023-05-10T09:07:15;17.80;99.90
30381;DHT22;17169;50.966;11.038;2023-05-10T09:10:18;17.90;99.90
30381;DHT22;17169;50.966;11.038;2023-05-10T09:13:23;18.00;99.90
30381;DHT22;17169;50.966;11.038;2023-05-10T09:16:25;18.10;99.90
30381;DHT22;17169;50.966;11.038;2023-05-10T09:19:28;18.20;99.90
30381;DHT22;17169;50.966;11.038;2023-05-10T09:22:31;18.30;99.90
30381;DHT22;17169;50.966;11.038;2023-05-10T09:25:33;18.30;99.90
30381;DHT22;17169;50.966;11.038;2023-05-10T09:28:51;18.30;99.90
30381;DHT22;17169;50.966;11.038;2023-05-10T09:31:53;18.30;99.90
30381;DHT22;17169;50.966;11.038;2023-05-10T09:34:56;18.20;99.90
30381;DHT22;17169;50.966;11.038;2023-05-10T09:38:01;18.20;99.90
30381;DHT22;17169;50.966;11.038;2023-05-10T09:41:04;18.00;99.90
30381;DHT22;17169;50.966;11.038;2023-05-10T09:44:08;18.00;99.90
30381;DHT22;17169;50.966;11.038;2023-05-10T09:47:10;17.80;99.90
30381;DHT22;17169;50.966;11.038;2023-05-10T09:50:19;17.50;99.90
30381;DHT22;17169;50.966;11.038;2023-05-10T09:53:22;17.30;99.90
30381;DHT22;17169;50.966;11.038;2023-05-10T09:56:34;17.00;99.90
30381;DHT22;17169;50.966;11.038;2023-05-10T09:59:43;16.90;99.90
30381;DHT22;17169;50.966;11.038;2023-05-10T10:02:46;16.90;99.90
30381;DHT22;17169;50.966;11.038;2023-05-10T10:05:49;17.00;99.90
30381;DHT22;17169;50.966;11.038;2023-05-10T10:08:53;17.10;99.90
30381;DHT22;17169;50.966;11.038;2023-05-10T10:11:57;17.30;99.90
30381;DHT22;17169;50.966;11.038;2023-05-10T10:15:01;17.40;99.90
30381;DHT22;17169;50.966;11.038;2023-05-10T10:18:05;17.60;99.90
30381;DHT22;17169;50.966;11.038;2023-05-10T10:21:07;17.60;99.90
30381;DHT22;17169;50.966;11.038;2023-05-10T10:24:10;17.90;99.90
30381;DHT22;17169;50.966;11.038;2023-05-10T10:27:21;18.10;99.90
30381;DHT22;17169;50.966;11.038;2023-05-10T10:30:30;18.40;99.90
30381;DHT22;17169;50.966;11.038;2023-05-10T10:33:43;18.60;99.90
30381;DHT22;17169;50.966;11.038;2023-05-10T10:36:50;18.90;99.90
30381;DHT22;17169;50.966;11.038;2023-05-10T10:39:55;19.10;99.90
30381;DHT22;17169;50.966;11.038;2023-05-10T10:43:21;19.40;99.90
30381;DHT22;17169;50.966;11.038;2023-05-10T10:46:25;19.60;99.90
30381;DHT22;17169;50.966;11.038;2023-05-10T10:49:30;19.70;99.90
30381;DHT22;17169;50.966;11.038;2023-05-10T10:52:34;19.60;99.90
30381;DHT22;17169;50.966;11.038;2023-05-10T10:55:45;19.40;99.90
30381;DHT22;17169;50.966;11.038;2023-05-10T10:58:49;19.20;99.90
30381;DHT22;17169;50.966;11.038;2023-05-10T11:01:54;19.00;99.90
30381;DHT22;17169;50.966;11.038;2023-05-10T11:04:57;18.90;99.90
30381;DHT22;17169;50.966;11.038;2023-05-10T11:08:01;18.80;99.90
30381;DHT22;17169;50.966;11.038;2023-05-10T11:11:08;18.60;99.90
30381;DHT22;17169;50.966;11.038;2023-05-10T11:14:11;18.50;99.90
30381;DHT22;17169;50.966;11.038;2023-05-10T11:17:24;18.20;99.90
30381;DHT22;17169;50.966;11.038;2023-05-10T11:20:39;18.00;99.90
30381;DHT22;17169;50.966;11.038;2023-05-10T11:23:51;17.70;99.90
30381;DHT22;17169;50.966;11.038;2023-05-10T11:26:56;17.60;99.90
30381;DHT22;17169;50.966;11.038;2023-05-10T11:29:59;17.50;99.90
30381;DHT22;17169;50.966;11.038;2023-05-10T11:33:03;17.40;99.90
30381;DHT22;17169;50.966;11.038;2023-05-10T11:36:06;17.30;99.90
30381;DHT22;17169;50.966;11.038;2023-05-10T11:39:12;17.20;99.90
30381;DHT22;17169;50.966;11.038;2023-05-10T11:42:15;17.30;99.90
30381;DHT22;17169;50.966;11.038;2023-05-10T11:45:17;17.40;99.90
30381;DHT22;17169;50.966;11.038;2023-05-10T11:48:21;17.60;99.90
30381;DHT22;17169;50.966;11.038;2023-05-10T11:51:25;17.60;99.90
30381;DHT22;17169;50.966;11.038;2023-05-10T11:54:27;17.70;99.90
30381;DHT22;17169;50.966;11.038;2023-05-10T11:57:30;17.70;99.90
30381;DHT22;17169;50.966;11.038;2023-05-10T12:00:33;17.80;99.90
30381;DHT22;17169;50.966;11.038;2023-05-10T12:03:37;17.90;99.90
30381;DHT22;17169;50.966;11.038;2023-05-10T12:06:41;18.10;99.90
30381;DHT22;17169;50.966;11.038;2023-05-10T12:09:43;18.40;99.90
30381;DHT22;17169;50.966;11.038;2023-05-10T12:12:47;18.60;99.90
30381;DHT22;17169;50.966;11.038;2023-05-10T12:15:50;18.70;99.90
30381;DHT22;17169;50.966;11.038;2023-05-10T12:18:56;19.00;99.90
30381;DHT22;17169;50.966;11.038;2023-05-10T12:21:58;19.20;99.90
30381;DHT22;17169;50.966;11.038;2023-05-10T12:25:01;19.50;99.90
30381;DHT22;17169;50.966;11.038;2023-05-10T12:28:07;19.80;99.90
30381;DHT22;17169;50.966;11.038;2023-05-10T12:31:09;20.10;99.90
30381;DHT22;17169;50.966;11.038;2023-05-10T12:34:23;20.40;99.90
30381;DHT22;17169;50.966;11.038;2023-05-10T12:37:27;20.60;99.90
30381;DHT22;17169;50.966;11.038;2023-05-10T12:40:30;20.70;99.90
30381;DHT22;17169;50.966;11.038;2023-05-10T12:43:33;20.70;99.90
30381;DHT22;17169;50.966;11.038;2023-05-10T12:46:36;20.70;99.70
30381;DHT22;17169;50.966;11.038;2023-05-10T12:49:39;20.60;99.80
30381;DHT22;17169;50.966;11.038;2023-05-10T12:52:42;20.60;99.60
30381;DHT22;17169;50.966;11.038;2023-05-10T12:55:44;20.60;99.20
30381;DHT22;17169;50.966;11.038;2023-05-10T12:58:47;20.40;97.90
30381;DHT22;17169;50.966;11.038;2023-05-10T13:01:49;20.30;98.60
30381;DHT22;17169;50.966;11.038;2023-05-10T13:04:53;20.30;99.30
30381;DHT22;17169;50.966;11.038;2023-05-10T13:07:55;20.30;98.30
30381;DHT22;17169;50.966;11.038;2023-05-10T13:10:58;20.20;98.70
30381;DHT22;17169;50.966;11.038;2023-05-10T13:14:00;20.20;97.90
30381;DHT22;17169;50.966;11.038;2023-05-10T13:17:04;20.30;98.00
30381;DHT22;17169;50.966;11.038;2023-05-10T13:20:08;20.30;98.80
30381;DHT22;17169;50.966;11.038;2023-05-10T13:23:11;20.50;98.70
30381;DHT22;17169;50.966;11.038;2023-05-10T13:26:13;20.50;97.80
30381;DHT22;17169;50.966;11.038;2023-05-10T13:29:16;20.40;97.00
30381;DHT22;17169;50.966;11.038;2023-05-10T13:32:19;20.40;96.10
30381;DHT22;17169;50.966;11.038;2023-05-10T13:35:23;20.30;95.80
30381;DHT22;17169;50.966;11.038;2023-05-10T13:38:25;20.30;95.90
30381;DHT22;17169;50.966;11.038;2023-05-10T13:41:27;20.20;95.40
30381;DHT22;17169;50.966;11.038;2023-05-10T13:44:30;20.30;96.30
30381;DHT22;17169;50.966;11.038;2023-05-10T13:47:34;20.30;94.80
30381;DHT22;17169;50.966;11.038;2023-05-10T13:50:38;20.50;95.30
30381;DHT22;17169;50.966;11.038;2023-05-10T13:53:41;20.60;95.40
30381;DHT22;17169;50.966;11.038;2023-05-10T13:56:43;20.90;95.40
30381;DHT22;17169;50.966;11.038;2023-05-10T13:59:46;21.30;94.20
30381;DHT22;17169;50.966;11.038;2023-05-10T14:02:48;21.50;92.90
30381;DHT22;17169;50.966;11.038;2023-05-10T14:05:52;21.80;93.60
30381;DHT22;17169;50.966;11.038;2023-05-10T14:08:55;22.40;93.10
30381;DHT22;17169;50.966;11.038;2023-05-10T14:11:57;22.90;91.90
30381;DHT22;17169;50.966;11.038;2023-05-10T14:15:00;23.10;91.90
30381;DHT22;17169;50.966;11.038;2023-05-10T14:18:03;23.20;92.20
30381;DHT22;17169;50.966;11.038;2023-05-10T14:21:07;23.20;91.50
30381;DHT22;17169;50.966;11.038;2023-05-10T14:24:09;23.20;91.20
30381;DHT22;17169;50.966;11.038;2023-05-10T14:27:11;23.00;90.30
30381;DHT22;17169;50.966;11.038;2023-05-10T14:30:14;22.90;91.10
30381;DHT22;17169;50.966;11.038;2023-05-10T14:33:17;22.90;91.00
30381;DHT22;17169;50.966;11.038;2023-05-10T14:36:20;22.90;90.50
30381;DHT22;17169;50.966;11.038;2023-05-10T14:39:23;22.90;90.40
30381;DHT22;17169;50.966;11.038;2023-05-10T14:42:25;22.90;90.60
30381;DHT22;17169;50.966;11.038;2023-05-10T14:45:28;23.10;90.30
30381;DHT22;17169;50.966;11.038;2023-05-10T14:48:30;23.20;88.90
30381;DHT22;17169;50.966;11.038;2023-05-10T14:51:34;23.20;88.80
30381;DHT22;17169;50.966;11.038;2023-05-10T14:54:37;23.20;88.00
30381;DHT22;17169;50.966;11.038;2023-05-10T14:57:40;23.50;89.50
30381;DHT22;17169;50.966;11.038;2023-05-10T15:00:42;24.40;90.10
30381;DHT22;17169;50.966;11.038;2023-05-10T15:03:45;25.10;88.40
30381;DHT22;17169;50.966;11.038;2023-05-10T15:06:49;27.10;87.10
30381;DHT22;17169;50.966;11.038;2023-05-10T15:09:51;28.40;82.50
30381;DHT22;17169;50.966;11.038;2023-05-10T15:12:54;28.90;78.90
30381;DHT22;17169;50.966;11.038;2023-05-10T15:15:56;29.90;77.80
30381;DHT22;17169;50.966;11.038;2023-05-10T15:18:59;31.00;74.00
30381;DHT22;17169;50.966;11.038;2023-05-10T15:22:04;32.50;70.10
30381;DHT22;17169;50.966;11.038;2023-05-10T15:25:07;32.80;64.50
30381;DHT22;17169;50.966;11.038;2023-05-10T15:28:10;32.90;62.80
30381;DHT22;17169;50.966;11.038;2023-05-10T15:31:13;32.90;59.70
30381;DHT22;17169;50.966;11.038;2023-05-10T15:34:16;32.40;57.90
30381;DHT22;17169;50.966;11.038;2023-05-10T15:37:20;31.80;59.10
30381;DHT22;17169;50.966;11.038;2023-05-10T15:40:24;30.80;59.00
30381;DHT22;17169;50.966;11.038;2023-05-10T15:43:26;29.90;59.80
30381;DHT22;17169;50.966;11.038;2023-05-10T15:46:29;29.20;61.80
30381;DHT22;17169;50.966;11.038;2023-05-10T15:49:31;28.50;61.30
30381;DHT22;17169;50.966;11.038;2023-05-10T15:52:36;27.90;61.60
30381;DHT22;17169;50.966;11.038;2023-05-10T15:55:38;27.40;62.80
30381;DHT22;17169;50.966;11.038;2023-05-10T15:58:41;26.80;63.30
30381;DHT22;17169;50.966;11.038;2023-05-10T16:01:44;26.30;64.20
30381;DHT22;17169;50.966;11.038;2023-05-10T16:04:46;25.70;65.70
30381;DHT22;17169;50.966;11.038;2023-05-10T16:07:50;25.00;66.10
30381;DHT22;17169;50.966;11.038;2023-05-10T16:10:52;24.40;67.00
30381;DHT22;17169;50.966;11.038;2023-05-10T16:13:54;24.00;69.00
30381;DHT22;17169;50.966;11.038;2023-05-10T16:16:57;23.60;70.20
30381;DHT22;17169;50.966;11.038;2023-05-10T16:19:59;23.30;71.90
30381;DHT22;17169;50.966;11.038;2023-05-10T16:23:05;23.00;72.50
30381;DHT22;17169;50.966;11.038;2023-05-10T16:26:07;22.70;74.50
30381;DHT22;17169;50.966;11.038;2023-05-10T16:29:10;22.40;75.90
30381;DHT22;17169;50.966;11.038;2023-05-10T16:32:12;22.00;77.70
30381;DHT22;17169;50.966;11.038;2023-05-10T16:35:15;21.40;82.90
30381;DHT22;17169;50.966;11.038;2023-05-10T16:38:18;20.70;88.80
30381;DHT22;17169;50.966;11.038;2023-05-10T16:41:21;19.90;90.00
30381;DHT22;17169;50.966;11.038;2023-05-10T16:44:24;19.40;90.10
30381;DHT22;17169;50.966;11.038;2023-05-10T16:47:26;18.90;90.50
30381;DHT22;17169;50.966;11.038;2023-05-10T16:50:28;18.60;90.90
30381;DHT22;17169;50.966;11.038;2023-05-10T16:53:32;18.30;91.60
30381;DHT22;17169;50.966;11.038;2023-05-10T16:56:35;17.80;92.00
30381;DHT22;17169;50.966;11.038;2023-05-10T16:59:37;17.50;92.60
30381;DHT22;17169;50.966;11.038;2023-05-10T17:02:39;17.20;93.30
30381;DHT22;17169;50.966;11.038;2023-05-10T17:05:42;17.00;94.30
30381;DHT22;17169;50.966;11.038;2023-05-10T17:08:46;16.80;95.70
30381;DHT22;17169;50.966;11.038;2023-05-10T17:11:48;16.50;97.10
30381;DHT22;17169;50.966;11.038;2023-05-10T17:14:50;16.30;98.80
30381;DHT22;17169;50.966;11.038;2023-05-10T17:17:53;16.10;99.90
30381;DHT22;17169;50.966;11.038;2023-05-10T17:20:55;15.90;99.90
30381;DHT22;17169;50.966;11.038;2023-05-10T17:23:59;15.70;99.90
30381;DHT22;17169;50.966;11.038;2023-05-10T17:27:01;15.50;99.90
30381;DHT22;17169;50.966;11.038;2023-05-10T17:30:05;15.30;99.90
30381;DHT22;17169;50.966;11.038;2023-05-10T17:33:07;15.20;99.90
30381;DHT22;17169;50.966;11.038;2023-05-10T17:36:10;15.10;99.90
30381;DHT22;17169;50.966;11.038;2023-05-10T17:39:14;15.10;99.90
30381;DHT22;17169;50.966;11.038;2023-05-10T17:42:16;15.00;99.90
30381;DHT22;17169;50.966;11.038;2023-05-10T17:45:20;15.00;99.90
30381;DHT22;17169;50.966;11.038;2023-05-10T17:48:22;15.00;99.90
30381;DHT22;17169;50.966;11.038;2023-05-10T17:51:24;15.00;99.90
30381;DHT22;17169;50.966;11.038;2023-05-10T17:54:28;14.90;99.90
30381;DHT22;17169;50.966;11.038;2023-05-10T17:57:30;14.90;99.90
30381;DHT22;17169;50.966;11.038;2023-05-10T18:00:33;14.90;99.90
30381;DHT22;17169;50.966;11.038;2023-05-10T18:03:35;14.90;99.90
30381;DHT22;17169;50.966;11.038;2023-05-10T18:06:38;14.80;99.90
30381;DHT22;17169;50.966;11.038;2023-05-10T18:09:42;14.80;99.90
30381;DHT22;17169;50.966;11.038;2023-05-10T18:12:45;14.80;99.90
30381;DHT22;17169;50.966;11.038;2023-05-10T18:15:47;14.80;99.90
30381;DHT22;17169;50.966;11.038;2023-05-10T18:18:50;14.80;99.90
30381;DHT22;17169;50.966;11.038;2023-05-10T18:21:52;14.80;99.90
30381;DHT22;17169;50.966;11.038;2023-05-10T18:24:56;14.80;99.90
30381;DHT22;17169;50.966;11.038;2023-05-10T18:27:58;14.80;99.90
30381;DHT22;17169;50.966;11.038;2023-05-10T18:31:00;14.80;99.90
30381;DHT22;17169;50.966;11.038;2023-05-10T18:34:03;14.80;99.90
30381;DHT22;17169;50.966;11.038;2023-05-10T18:37:06;14.80;99.90
30381;DHT22;17169;50.966;11.038;2023-05-10T18:40:11;14.80;99.90
30381;DHT22;17169;50.966;11.038;2023-05-10T18:43:14;14.70;99.90
30381;DHT22;17169;50.966;11.038;2023-05-10T18:46:17;14.70;99.90
30381;DHT22;17169;50.966;11.038;2023-05-10T18:49:19;14.70;99.90
30381;DHT22;17169;50.966;11.038;2023-05-10T18:52:21;14.80;99.90
30381;DHT22;17169;50.966;11.038;2023-05-10T18:55:25;14.70;99.90
30381;DHT22;17169;50.966;11.038;2023-05-10T18:58:28;14.70;99.90
30381;DHT22;17169;50.966;11.038;2023-05-10T19:01:31;14.70;99.90